createdAt,value
2019-03-23T00:00:11.350Z,10.97
2019-03-23T00:02:41.254Z,13.08
2019-03-23T00:05:11.821Z,11.33
2019-03-23T00:07:41.762Z,11.83
2019-03-23T00:10:12.119Z,12.27
2019-03-23T00:12:42.277Z,11.53
2019-03-23T00:15:12.334Z,11.17
2019-03-23T00:17:42.078Z,10.80
2019-03-23T00:20:12.376Z,11.63
2019-03-23T00:22:43.773Z,11.20
2019-03-23T00:25:13.781Z,11.20
2019-03-23T00:27:45.464Z,12.20
2019-03-23T00:30:15.643Z,11.60
2019-03-23T00:32:46.803Z,10.80
2019-03-23T00:35:19.936Z,10.77
2019-03-23T00:37:51.543Z,12.27
2019-03-23T00:40:24.355Z,11.77
2019-03-23T00:42:57.319Z,12.07
2019-03-23T00:45:29.723Z,10.90
2019-03-23T00:48:01.117Z,11.33
2019-03-23T00:50:31.157Z,11.03
2019-03-23T00:53:01.779Z,11.57
2019-03-23T00:55:31.540Z,10.93
2019-03-23T00:58:01.976Z,12.10
2019-03-23T01:00:32.135Z,12.57
2019-03-23T01:03:03.214Z,12.40
2019-03-23T01:05:33.253Z,10.03
2019-03-23T01:08:06.219Z,11.57
2019-03-23T01:10:37.032Z,10.90
2019-03-23T01:13:07.511Z,10.83
2019-03-23T01:15:37.293Z,10.93
2019-03-23T01:18:07.632Z,10.37
2019-03-23T01:20:38.185Z,9.53
2019-03-23T01:23:08.439Z,9.30
2019-03-23T01:25:39.539Z,9.50
2019-03-23T01:28:12.832Z,10.07
2019-03-23T01:30:44.883Z,9.53
2019-03-23T01:33:17.757Z,9.37
2019-03-23T01:35:47.676Z,9.70
2019-03-23T01:38:20.563Z,9.93
2019-03-23T01:40:54.305Z,9.17
2019-03-23T01:43:28.182Z,10.03
2019-03-23T01:46:01.444Z,9.67
2019-03-23T01:48:33.397Z,9.47
2019-03-23T01:51:03.119Z,9.83
2019-03-23T01:53:33.225Z,10.67
2019-03-23T01:56:03.437Z,9.53
2019-03-23T01:58:33.800Z,9.23
2019-03-23T02:01:04.563Z,9.17
2019-03-23T02:03:34.550Z,9.93
2019-03-23T02:06:04.490Z,9.60
2019-03-23T02:08:35.529Z,9.20
2019-03-23T02:11:05.955Z,9.60
2019-03-23T02:13:36.967Z,9.87
2019-03-23T02:16:07.052Z,9.53
2019-03-23T02:18:36.687Z,10.03
2019-03-23T02:21:07.297Z,9.53
2019-03-23T02:23:37.782Z,9.20
2019-03-23T02:26:07.896Z,9.70
2019-03-23T02:28:38.224Z,10.10
2019-03-23T02:31:08.059Z,9.17
2019-03-23T02:33:38.926Z,10.50
2019-03-23T02:36:08.894Z,9.33
2019-03-23T02:38:42.521Z,9.53
2019-03-23T02:41:12.779Z,9.87
2019-03-23T02:43:45.161Z,10.10
2019-03-23T02:46:15.880Z,8.87
2019-03-23T02:48:45.418Z,9.80
2019-03-23T02:51:18.457Z,9.93
2019-03-23T02:53:48.726Z,8.90
2019-03-23T02:56:18.357Z,9.50
2019-03-23T02:58:48.714Z,9.70
2019-03-23T03:01:20.465Z,9.33
2019-03-23T03:03:50.021Z,9.97
2019-03-23T03:06:20.354Z,10.00
2019-03-23T03:08:50.935Z,9.83
2019-03-23T03:11:21.936Z,9.90
2019-03-23T03:13:51.926Z,9.30
2019-03-23T03:16:21.606Z,9.67
2019-03-23T03:18:51.906Z,9.20
2019-03-23T03:21:22.761Z,10.07
2019-03-23T03:23:53.385Z,9.47
2019-03-23T03:26:23.883Z,10.60
2019-03-23T03:28:54.726Z,9.93
2019-03-23T03:31:25.994Z,9.80
2019-03-23T03:33:57.504Z,9.57
2019-03-23T03:36:30.057Z,9.27
2019-03-23T03:53:57.873Z,9.73
2019-03-23T03:56:30.249Z,9.07
2019-03-23T03:59:01.280Z,9.40
2019-03-23T04:01:31.764Z,8.47
2019-03-23T04:04:02.847Z,8.53
2019-03-23T04:06:35.054Z,9.90
2019-03-23T04:09:05.988Z,9.60
2019-03-23T04:11:36.335Z,9.00
2019-03-23T04:19:06.188Z,8.20
2019-03-23T04:21:39.219Z,8.67
2019-03-23T04:24:12.680Z,9.40
2019-03-23T04:26:42.615Z,8.40
2019-03-23T04:29:12.570Z,9.60
2019-03-23T04:31:43.918Z,10.13
2019-03-23T04:34:13.914Z,9.53
2019-03-23T04:36:45.509Z,10.17
2019-03-23T04:39:16.739Z,10.15
2019-03-23T04:41:47.070Z,9.43
2019-03-23T04:44:19.726Z,10.03
2019-03-23T04:46:49.738Z,9.75
2019-03-23T04:49:20.877Z,9.33
2019-03-23T04:51:51.032Z,9.80
2019-03-23T04:54:21.367Z,9.60
2019-03-23T04:56:52.160Z,9.80
2019-03-23T04:59:23.828Z,9.63
2019-03-23T05:01:53.823Z,9.15
2019-03-23T05:04:23.360Z,9.93
2019-03-23T05:06:53.205Z,9.58
2019-03-23T05:09:23.855Z,9.93
2019-03-23T05:11:53.424Z,8.73
2019-03-23T05:14:23.501Z,8.03
2019-03-23T05:16:53.973Z,8.07
2019-03-23T05:19:24.388Z,7.80
2019-03-23T05:21:54.078Z,8.17
2019-03-23T05:24:24.133Z,8.30
2019-03-23T05:26:53.821Z,7.90
2019-03-23T05:29:23.851Z,8.87
2019-03-23T05:31:54.006Z,7.43
2019-03-23T05:34:23.907Z,8.27
2019-03-23T05:36:53.697Z,8.60
2019-03-23T05:39:43.228Z,8.50
2019-03-23T05:42:13.746Z,8.23
2019-03-23T05:44:44.526Z,8.03
2019-03-23T05:47:18.209Z,8.50
2019-03-23T05:50:19.246Z,7.97
2019-03-23T05:53:07.955Z,9.17
2019-03-23T05:55:32.644Z,8.70
2019-03-23T05:58:34.632Z,9.03
2019-03-23T06:01:04.884Z,8.73
2019-03-23T06:03:34.902Z,8.73
2019-03-23T06:06:27.122Z,9.33
2019-03-23T06:08:57.042Z,9.03
2019-03-23T06:11:28.214Z,8.53
2019-03-23T06:14:40.080Z,8.30
2019-03-23T06:17:51.354Z,8.83
2019-03-23T06:20:23.497Z,8.97
2019-03-23T06:22:55.785Z,8.47
2019-03-23T06:25:25.102Z,8.47
2019-03-23T06:27:56.283Z,7.87
2019-03-23T06:30:26.051Z,7.40
2019-03-23T06:33:00.259Z,8.77
2019-03-23T06:35:30.671Z,8.60
2019-03-23T06:38:01.285Z,8.47
2019-03-23T06:40:31.402Z,8.80
2019-03-23T06:43:03.829Z,8.53
2019-03-23T06:45:36.730Z,9.20
2019-03-23T06:48:06.770Z,9.20
2019-03-23T06:50:38.637Z,8.30
2019-03-23T06:53:11.709Z,8.23
2019-03-23T06:55:41.757Z,8.40
2019-03-23T06:58:12.933Z,8.77
2019-03-23T07:00:43.453Z,9.10
2019-03-23T07:03:13.513Z,8.80
2019-03-23T07:05:43.708Z,8.23
2019-03-23T07:08:13.974Z,8.50
2019-03-23T07:10:44.406Z,8.57
2019-03-23T07:13:15.441Z,9.15
2019-03-23T07:15:45.810Z,8.70
2019-03-23T07:18:15.678Z,8.23
2019-03-23T07:20:47.503Z,8.50
2019-03-23T07:23:17.718Z,8.53
2019-03-23T07:25:47.622Z,8.40
2019-03-23T07:28:17.228Z,8.33
2019-03-23T07:30:49.555Z,8.30
2019-03-23T07:33:21.501Z,8.00
2019-03-23T07:35:52.210Z,8.57
2019-03-23T07:38:23.975Z,9.17
2019-03-23T07:45:53.225Z,9.05
2019-03-23T07:48:28.417Z,10.10
2019-03-23T07:50:56.847Z,10.68
2019-03-23T07:53:26.860Z,10.30
2019-03-23T07:55:59.147Z,9.28
2019-03-23T07:58:30.369Z,9.83
2019-03-23T08:01:02.310Z,9.50
2019-03-23T08:03:32.425Z,9.85
2019-03-23T08:06:03.200Z,10.13
2019-03-23T08:08:37.270Z,10.60
2019-03-23T08:11:06.889Z,9.88
2019-03-23T08:13:36.963Z,10.93
2019-03-23T08:16:29.875Z,12.23
2019-03-23T08:19:06.174Z,12.28
2019-03-23T08:22:26.008Z,13.20
2019-03-23T08:24:45.754Z,14.13
2019-03-23T08:27:41.672Z,14.53
2019-03-23T08:30:48.758Z,14.20
2019-03-23T08:33:48.308Z,13.50
2019-03-23T08:39:49.336Z,15.70
2019-03-23T08:42:39.238Z,15.63
2019-03-23T08:45:19.875Z,16.82
2019-03-23T08:47:50.356Z,17.23
2019-03-23T08:50:40.491Z,17.20
2019-03-23T08:57:21.419Z,16.63
2019-03-23T08:59:57.718Z,18.00
2019-03-23T09:02:31.553Z,18.35
2019-03-23T09:05:03.645Z,17.40
2019-03-23T09:07:33.886Z,17.65
2019-03-23T09:10:10.413Z,19.55
2019-03-23T09:13:25.179Z,18.83
2019-03-23T09:16:04.040Z,20.55
2019-03-23T09:18:36.023Z,19.32
2019-03-23T09:21:06.244Z,19.55
2019-03-23T09:23:36.191Z,21.45
2019-03-23T09:26:07.214Z,20.95
2019-03-23T09:28:40.402Z,22.00
2019-03-23T09:31:13.628Z,22.13
2019-03-23T09:33:44.796Z,22.05
2019-03-23T09:36:22.966Z,23.73
2019-03-23T09:38:55.475Z,23.05
2019-03-23T09:41:25.762Z,22.77
2019-03-23T09:43:56.718Z,21.62
2019-03-23T09:46:30.618Z,23.37
2019-03-23T09:49:05.449Z,22.48
2019-03-23T09:51:35.202Z,24.32
2019-03-23T09:54:05.027Z,24.00
2019-03-23T09:56:35.403Z,23.83
2019-03-23T09:59:05.606Z,21.95
2019-03-23T10:01:42.264Z,21.42
2019-03-23T10:04:10.105Z,23.50
2019-03-23T10:06:40.015Z,23.85
2019-03-23T10:09:10.296Z,23.22
2019-03-23T10:11:45.351Z,26.00
2019-03-23T10:14:20.694Z,23.67
2019-03-23T10:16:59.795Z,23.95
2019-03-23T10:19:39.364Z,22.77
2019-03-23T10:22:09.506Z,24.95
2019-03-23T10:24:57.317Z,22.30
2019-03-23T10:27:28.852Z,23.55
2019-03-23T10:29:59.508Z,25.40
2019-03-23T10:32:29.670Z,24.63
2019-03-23T10:34:59.743Z,25.50
2019-03-23T10:37:43.717Z,27.15
2019-03-23T10:40:11.464Z,26.27
2019-03-23T10:42:43.373Z,24.98
2019-03-23T10:45:14.777Z,23.42
2019-03-23T10:47:46.513Z,23.87
2019-03-23T10:50:16.630Z,25.48
2019-03-23T10:52:47.082Z,25.10
2019-03-23T10:55:16.995Z,23.60
2019-03-23T10:57:47.417Z,19.60
2019-03-23T11:00:25.487Z,18.73
2019-03-23T11:02:59.994Z,17.30
2019-03-23T11:05:37.187Z,18.90
2019-03-23T11:08:15.075Z,21.85
2019-03-23T11:10:51.615Z,22.10
2019-03-23T11:13:36.510Z,22.22
2019-03-23T11:16:23.811Z,24.43
2019-03-23T11:18:59.772Z,23.80
2019-03-23T11:21:35.312Z,24.75
2019-03-23T11:24:07.048Z,24.30
2019-03-23T11:26:47.974Z,24.15
2019-03-23T11:29:29.583Z,24.23
2019-03-23T11:32:06.707Z,23.18
2019-03-23T11:34:47.331Z,24.18
2019-03-23T11:37:20.020Z,24.50
2019-03-23T11:39:52.548Z,24.15
2019-03-23T11:42:28.980Z,24.23
2019-03-23T11:45:00.454Z,24.98
2019-03-23T11:47:32.062Z,22.73
2019-03-23T11:50:03.549Z,23.90
2019-03-23T11:52:42.281Z,24.87
2019-03-23T11:55:16.622Z,23.53
2019-03-23T11:57:49.741Z,23.47
2019-03-23T12:00:20.224Z,22.85
2019-03-23T12:03:01.004Z,24.27
2019-03-23T12:05:35.692Z,24.18
2019-03-23T12:08:07.630Z,23.98
2019-03-23T12:10:43.661Z,24.55
2019-03-23T12:13:16.784Z,23.62
2019-03-23T12:15:52.640Z,22.98
2019-03-23T12:19:00.299Z,23.22
2019-03-23T12:21:31.295Z,20.37
2019-03-23T12:24:22.045Z,21.52
2019-03-23T12:26:55.360Z,20.20
2019-03-23T12:29:37.375Z,20.50
2019-03-23T12:32:17.455Z,19.20
2019-03-23T12:34:52.490Z,18.60
2019-03-23T12:37:24.727Z,21.25
2019-03-23T12:39:58.167Z,23.10
2019-03-23T12:42:33.678Z,22.05
2019-03-23T12:45:08.515Z,23.27
2019-03-23T12:47:38.623Z,23.52
2019-03-23T12:50:12.348Z,23.85
2019-03-23T12:52:53.462Z,25.50
2019-03-23T12:55:24.012Z,24.02
2019-03-23T12:57:54.357Z,25.92
2019-03-23T13:00:36.022Z,25.45
2019-03-23T13:03:10.921Z,25.85
2019-03-23T13:05:44.433Z,25.37
2019-03-23T13:08:19.074Z,23.83
2019-03-23T13:10:59.382Z,26.10
2019-03-23T13:13:32.761Z,25.83
2019-03-23T13:16:08.623Z,27.05
2019-03-23T13:18:44.367Z,26.37
2019-03-23T13:21:24.088Z,23.53
2019-03-23T13:24:03.624Z,26.57
2019-03-23T13:26:46.513Z,27.05
2019-03-23T13:29:25.849Z,25.40
2019-03-23T13:31:57.737Z,25.88
2019-03-23T13:34:29.994Z,24.95
2019-03-23T13:37:06.068Z,25.02
2019-03-23T13:39:40.487Z,25.23
2019-03-23T13:42:14.823Z,23.32
2019-03-23T13:45:28.183Z,25.68
2019-03-23T13:48:00.135Z,23.32
2019-03-23T13:50:32.355Z,25.70
2019-03-23T13:53:11.743Z,23.60
2019-03-23T13:55:45.923Z,23.77
2019-03-23T13:58:19.770Z,23.10
2019-03-23T14:00:54.135Z,23.40
2019-03-23T14:03:31.383Z,24.47
2019-03-23T14:06:06.101Z,23.18
2019-03-23T14:08:39.852Z,21.50
2019-03-23T14:11:10.693Z,22.02
2019-03-23T14:13:44.434Z,23.20
2019-03-23T14:16:15.074Z,22.95
2019-03-23T14:18:48.286Z,23.40
2019-03-23T14:21:23.459Z,22.25
2019-03-23T14:23:58.662Z,23.05
2019-03-23T14:26:31.896Z,23.12
2019-03-23T14:29:05.647Z,22.30
2019-03-23T14:31:36.630Z,21.57
2019-03-23T14:34:13.024Z,21.68
2019-03-23T14:41:28.453Z,22.25
2019-03-23T14:44:00.397Z,21.50
2019-03-23T14:46:30.967Z,25.20
2019-03-23T14:49:05.586Z,23.27
2019-03-23T14:51:44.384Z,25.55
2019-03-23T14:54:19.022Z,24.30
2019-03-23T14:57:00.025Z,26.13
2019-03-23T14:59:36.155Z,26.05
2019-03-23T15:02:07.226Z,27.40
2019-03-23T15:04:56.042Z,28.20
2019-03-23T15:07:26.714Z,24.50
2019-03-23T15:10:25.789Z,23.73
2019-03-23T15:13:23.909Z,25.83
2019-03-23T15:15:55.319Z,28.52
2019-03-23T15:18:28.794Z,29.37
2019-03-23T15:21:17.859Z,27.58
2019-03-23T15:23:51.354Z,27.93
2019-03-23T15:26:27.191Z,28.75
2019-03-23T15:32:38.697Z,28.50
2019-03-23T15:35:10.822Z,27.63
2019-03-23T15:37:44.819Z,26.37
2019-03-23T15:40:16.634Z,28.07
2019-03-23T15:42:49.575Z,27.33
2019-03-23T15:45:20.044Z,26.90
2019-03-23T15:47:49.870Z,26.00
2019-03-23T15:50:23.247Z,27.55
2019-03-23T15:52:58.093Z,29.45
2019-03-23T15:55:27.747Z,28.47
2019-03-23T15:57:58.538Z,29.40
2019-03-23T16:00:29.630Z,28.83
2019-03-23T16:03:04.973Z,27.50
2019-03-23T16:05:35.764Z,26.50
2019-03-23T16:08:07.370Z,28.38
2019-03-23T16:10:37.610Z,25.85
2019-03-23T16:13:09.252Z,26.90
2019-03-23T16:15:39.470Z,25.77
2019-03-23T16:18:09.123Z,26.45
2019-03-23T16:20:41.171Z,25.52
2019-03-23T16:26:04.869Z,26.48
2019-03-23T16:28:40.154Z,26.55
2019-03-23T16:31:12.564Z,27.65
2019-03-23T16:33:43.125Z,26.57
2019-03-23T16:36:21.331Z,26.10
2019-03-23T16:52:05.349Z,19.60
2019-03-23T16:54:39.093Z,21.53
2019-03-23T16:57:36.272Z,21.37
2019-03-23T17:02:45.614Z,22.30
2019-03-23T18:00:41.646Z,21.63
2019-03-23T18:03:13.411Z,22.20
2019-03-23T18:05:44.804Z,21.93
2019-03-23T18:08:31.040Z,22.07
2019-03-23T18:11:02.814Z,22.37
2019-03-23T18:13:45.853Z,21.20
2019-03-23T18:16:23.864Z,20.97
2019-03-23T18:18:54.651Z,22.13
2019-03-23T18:21:30.548Z,22.47
2019-03-23T18:24:00.398Z,24.17
2019-03-23T18:26:31.105Z,23.27
2019-03-23T18:29:01.901Z,23.20
2019-03-23T18:31:34.625Z,23.67
2019-03-23T18:34:05.226Z,22.93
2019-03-23T18:36:35.148Z,23.17
2019-03-23T18:39:13.136Z,21.63
2019-03-23T18:41:44.649Z,22.20
2019-03-23T18:44:16.505Z,23.13
2019-03-23T18:46:52.084Z,22.73
2019-03-23T18:49:30.000Z,22.40
2019-03-23T18:52:00.108Z,23.27
2019-03-23T18:54:31.035Z,22.77
2019-03-23T18:57:03.946Z,22.40
2019-03-23T18:59:36.427Z,27.77
2019-03-23T19:02:07.481Z,24.10
2019-03-23T19:04:49.639Z,24.23
2019-03-23T19:07:19.607Z,23.53
2019-03-23T19:09:49.531Z,25.03
2019-03-23T19:12:20.967Z,22.63
2019-03-23T19:14:52.758Z,24.67
2019-03-23T19:17:25.382Z,23.73
2019-03-23T19:19:55.554Z,22.90
2019-03-23T19:22:26.612Z,24.40
2019-03-23T19:40:50.035Z,22.70
2019-03-23T19:43:20.063Z,28.45
2019-03-23T19:45:50.306Z,27.52
2019-03-23T19:48:20.523Z,28.47
2019-03-23T19:50:50.476Z,23.23
2019-03-23T19:53:21.061Z,28.00
2019-03-23T19:55:51.511Z,27.50
2019-03-23T19:58:28.160Z,26.85
2019-03-23T20:00:58.910Z,27.60
2019-03-23T20:03:29.827Z,28.52
2019-03-23T20:06:00.552Z,28.17
2019-03-23T20:08:30.522Z,29.63
2019-03-23T20:11:05.452Z,30.17
2019-03-23T20:13:35.154Z,29.45
2019-03-23T20:16:05.066Z,30.32
2019-03-23T20:18:36.898Z,30.40
2019-03-23T20:21:07.325Z,30.68
2019-03-23T20:23:44.133Z,29.85
2019-03-23T20:26:13.884Z,30.02
2019-03-23T20:28:47.659Z,32.38
2019-03-23T20:31:18.826Z,31.40
2019-03-23T20:33:49.354Z,32.23
2019-03-23T20:36:19.455Z,30.85
2019-03-23T20:38:50.453Z,31.35
2019-03-23T20:41:21.978Z,30.08
2019-03-23T20:43:53.441Z,31.23
2019-03-23T20:46:25.020Z,29.87
2019-03-23T20:48:54.776Z,29.00
2019-03-23T20:51:24.854Z,31.57
2019-03-23T20:53:57.665Z,30.17
2019-03-23T20:56:27.678Z,31.27
2019-03-23T20:58:59.683Z,30.60
2019-03-23T21:01:29.362Z,29.20
2019-03-23T21:04:00.058Z,30.10
2019-03-23T21:06:30.468Z,31.35
2019-03-23T21:09:00.409Z,31.55
2019-03-23T21:11:30.174Z,31.37
2019-03-23T21:14:01.194Z,31.30
2019-03-23T21:16:33.913Z,30.65
2019-03-23T21:19:04.900Z,31.80
2019-03-23T21:21:35.144Z,31.82
2019-03-23T21:24:05.387Z,31.45
2019-03-23T21:26:35.684Z,32.25
2019-03-23T21:29:05.433Z,32.83
2019-03-23T21:31:35.270Z,33.78
2019-03-23T21:34:04.996Z,33.75
2019-03-23T21:36:35.109Z,33.53
2019-03-23T21:39:08.296Z,31.35
2019-03-23T21:41:39.054Z,34.37
2019-03-23T21:44:08.967Z,32.48
2019-03-23T21:46:39.719Z,34.58
2019-03-23T21:49:09.757Z,41.02
2019-03-23T21:51:41.244Z,34.50
2019-03-23T21:54:13.174Z,28.70
2019-03-23T21:56:43.602Z,26.73
2019-03-23T21:59:13.557Z,26.20
2019-03-23T22:01:43.230Z,24.97
2019-03-23T22:04:13.139Z,27.53
2019-03-23T22:09:12.201Z,31.17
2019-03-23T22:11:42.029Z,29.13
2019-03-23T22:14:12.054Z,27.47
2019-03-23T22:16:56.333Z,26.27
2019-03-23T22:19:28.430Z,27.53
2019-03-23T22:21:58.570Z,26.80
2019-03-23T22:24:28.390Z,26.57
2019-03-23T22:26:58.451Z,26.17
2019-03-23T22:29:30.768Z,25.60
2019-03-23T22:32:02.818Z,30.97
2019-03-23T22:34:33.236Z,31.93
2019-03-23T22:37:03.244Z,31.17
2019-03-23T22:39:35.994Z,32.10
2019-03-23T22:42:06.590Z,33.88
2019-03-23T22:44:36.603Z,34.20
2019-03-23T22:47:06.636Z,31.65
2019-03-23T22:49:36.240Z,33.37
2019-03-23T22:52:07.029Z,31.35
2019-03-23T22:54:38.436Z,33.63
2019-03-23T22:57:08.504Z,32.05
2019-03-23T22:59:38.262Z,29.77
2019-03-23T23:02:10.636Z,31.52
2019-03-23T23:04:42.587Z,32.45
2019-03-23T23:07:13.119Z,30.68
2019-03-23T23:09:42.824Z,30.85
2019-03-23T23:12:12.850Z,32.30
2019-03-23T23:14:43.434Z,31.00
2019-03-23T23:17:15.626Z,30.90
2019-03-23T23:19:46.196Z,30.27
2019-03-23T23:22:16.731Z,30.40
2019-03-23T23:24:48.659Z,30.02
2019-03-23T23:27:30.943Z,31.97
2019-03-23T23:30:00.974Z,30.60
2019-03-23T23:32:32.218Z,30.95
2019-03-23T23:35:02.160Z,28.67
2019-03-23T23:37:32.720Z,31.50
2019-03-23T23:40:02.985Z,29.25
2019-03-23T23:42:32.599Z,29.98
2019-03-23T23:45:02.294Z,28.83
2019-03-23T23:47:32.725Z,29.12
2019-03-23T23:50:02.790Z,30.37
2019-03-23T23:52:34.891Z,27.50
2019-03-23T23:55:05.367Z,28.30
2019-03-23T23:57:35.906Z,28.27
